US-0157 weather

Prison Canyon Ranch Airport
Kerrville, Texas, United States

Public forecast

Using degrees Fahrenheit for public forecast. Weather courtesy of forecast.io.

Closest aviation weather report (METAR) to Prison Canyon Ranch Airport

Closest report is Kerrville Municipal Louis Schreiner Field, 6.5 nm (12.1 km) NNE. Retrieved 2019/10/23 14:35 UTC (19 minutes ago):

KERV 231435Z AUTO 00000KT 10SM CLR 17/11 A3011 RMK AO2 T01700112

Closest aviation forecast (TAF) to Prison Canyon Ranch Airport

Closest forecast is San Antonio International Airport, 39.9 nm (73.9 km) ESE. Retrieved 2019/10/23 12:22 UTC (3 hours ago):

TAF KSAT 231120Z 2312/2418 18004KT P6SM SKC FM231600 15012KT P6SM FEW250 FM240900 16010KT P6SM BKN015